createdAt,value
2018-06-27T00:00:01.931Z,90.20
2018-06-27T00:02:04.062Z,90.30
2018-06-27T00:04:06.522Z,90.10
2018-06-27T00:06:08.657Z,89.90
2018-06-27T00:08:11.078Z,90.00
2018-06-27T00:10:13.157Z,90.10
2018-06-27T00:12:15.304Z,89.90
2018-06-27T00:14:17.374Z,89.90
2018-06-27T00:16:19.529Z,89.90
2018-06-27T00:18:21.648Z,89.90
2018-06-27T00:20:23.768Z,89.80
2018-06-27T00:22:25.858Z,90.20
2018-06-27T00:24:27.948Z,90.00
2018-06-27T00:26:30.030Z,90.10
2018-06-27T00:28:32.118Z,90.00
2018-06-27T00:30:34.205Z,89.90
2018-06-27T00:32:36.267Z,89.70
2018-06-27T00:34:38.399Z,89.70
2018-06-27T00:36:40.475Z,89.70
2018-06-27T00:38:42.546Z,90.40
2018-06-27T00:40:45.066Z,90.60
2018-06-27T00:42:47.166Z,90.50
2018-06-27T00:44:49.237Z,90.70
2018-06-27T00:46:51.358Z,91.00
2018-06-27T00:48:53.429Z,90.80
2018-06-27T00:50:55.506Z,90.80
2018-06-27T00:52:57.763Z,91.00
2018-06-27T00:54:59.846Z,90.70
2018-06-27T00:57:01.940Z,90.50
2018-06-27T00:59:04.325Z,90.50
2018-06-27T01:01:06.418Z,90.40
2018-06-27T01:03:08.501Z,90.70
2018-06-27T01:05:10.572Z,90.70
2018-06-27T01:07:12.670Z,90.70
2018-06-27T01:09:14.769Z,90.60
2018-06-27T01:11:16.831Z,90.50
2018-06-27T01:13:18.937Z,90.40
2018-06-27T01:15:21.010Z,90.30
2018-06-27T01:17:23.097Z,90.30
2018-06-27T01:19:25.198Z,90.40
2018-06-27T01:21:27.278Z,90.00
2018-06-27T01:23:29.371Z,90.20
2018-06-27T01:25:31.457Z,90.00
2018-06-27T01:27:33.545Z,90.50
2018-06-27T01:29:35.615Z,90.20
2018-06-27T01:31:37.743Z,90.20
2018-06-27T01:33:39.813Z,90.40
2018-06-27T01:35:42.669Z,90.40
2018-06-27T01:37:44.777Z,90.50
2018-06-27T01:39:46.848Z,90.90
2018-06-27T01:41:48.921Z,91.60
2018-06-27T01:43:51.014Z,91.70
2018-06-27T01:45:53.482Z,91.30
2018-06-27T01:47:55.557Z,91.60
2018-06-27T01:49:57.985Z,91.20
2018-06-27T01:52:00.086Z,91.30
2018-06-27T01:54:02.170Z,90.90
2018-06-27T01:56:05.763Z,90.80
2018-06-27T01:58:08.018Z,91.00
2018-06-27T02:00:10.101Z,90.90
2018-06-27T02:02:12.189Z,90.90
2018-06-27T02:04:14.281Z,91.10
2018-06-27T02:06:16.538Z,91.00
2018-06-27T02:08:18.616Z,90.70
2018-06-27T02:10:20.706Z,91.30
2018-06-27T02:12:22.771Z,90.90
2018-06-27T02:14:24.850Z,90.70
2018-06-27T02:16:26.975Z,90.70
2018-06-27T02:18:29.053Z,90.80
2018-06-27T02:20:31.134Z,91.30
2018-06-27T02:22:33.248Z,91.50
2018-06-27T02:24:35.317Z,91.50
2018-06-27T02:26:37.393Z,91.40
2018-06-27T02:28:39.501Z,91.20
2018-06-27T02:30:41.618Z,91.20
2018-06-27T02:32:43.683Z,91.20
2018-06-27T02:34:45.758Z,90.90
2018-06-27T02:36:47.858Z,91.20
2018-06-27T02:38:49.944Z,91.40
2018-06-27T02:40:52.021Z,91.20
2018-06-27T02:42:54.518Z,90.90
2018-06-27T02:44:56.605Z,90.80
2018-06-27T02:46:58.682Z,91.40
2018-06-27T02:49:00.761Z,91.80
2018-06-27T02:51:02.849Z,91.90
2018-06-27T02:53:04.972Z,91.30
2018-06-27T02:55:07.069Z,91.50
2018-06-27T02:57:09.174Z,91.20
2018-06-27T02:59:11.265Z,91.50
2018-06-27T03:01:13.388Z,91.40
2018-06-27T03:03:15.468Z,91.20
2018-06-27T03:05:17.542Z,91.30
2018-06-27T03:07:19.617Z,91.60
2018-06-27T03:09:21.697Z,91.30
2018-06-27T03:11:23.800Z,91.30
2018-06-27T03:13:25.884Z,90.90
2018-06-27T03:15:27.973Z,91.00
2018-06-27T03:17:30.069Z,91.10
2018-06-27T03:19:32.161Z,91.30
2018-06-27T03:21:34.231Z,91.20
2018-06-27T03:23:36.327Z,90.90
2018-06-27T03:25:38.426Z,90.90
2018-06-27T03:27:40.666Z,90.90
2018-06-27T03:29:42.736Z,90.70
2018-06-27T03:31:44.814Z,90.70
2018-06-27T03:33:47.066Z,91.00
2018-06-27T03:35:49.066Z,91.20
2018-06-27T03:37:51.134Z,90.80
2018-06-27T03:39:53.246Z,90.50
2018-06-27T03:41:55.345Z,90.70
2018-06-27T03:43:57.448Z,91.10
2018-06-27T03:45:59.563Z,91.70
2018-06-27T03:48:01.673Z,91.10
2018-06-27T03:50:03.922Z,91.10
2018-06-27T03:52:06.049Z,91.00
2018-06-27T03:54:08.117Z,90.80
2018-06-27T03:56:11.142Z,90.90
2018-06-27T03:58:13.255Z,91.20
2018-06-27T04:00:15.380Z,90.50
2018-06-27T04:02:17.453Z,90.60
2018-06-27T04:04:19.525Z,90.60
2018-06-27T04:06:21.598Z,90.90
2018-06-27T04:08:23.681Z,91.60
2018-06-27T04:10:25.755Z,92.20
2018-06-27T04:12:28.259Z,91.80
2018-06-27T04:14:30.336Z,91.80
2018-06-27T04:16:32.430Z,91.60
2018-06-27T04:18:34.533Z,91.70
2018-06-27T04:20:36.607Z,91.90
2018-06-27T04:22:38.695Z,91.70
2018-06-27T04:24:40.852Z,92.20
2018-06-27T04:26:43.000Z,91.70
2018-06-27T04:28:45.103Z,91.90
2018-06-27T04:30:47.195Z,91.90
2018-06-27T04:32:49.318Z,91.40
2018-06-27T04:34:51.386Z,91.30
2018-06-27T04:36:53.493Z,91.50
2018-06-27T04:38:55.601Z,91.50
2018-06-27T04:40:58.478Z,91.70
2018-06-27T04:43:00.569Z,91.80
2018-06-27T04:45:02.670Z,91.70
2018-06-27T04:47:04.763Z,91.70
2018-06-27T04:49:06.853Z,91.40
2018-06-27T04:51:08.926Z,91.00
2018-06-27T04:53:11.055Z,90.80
2018-06-27T04:55:13.409Z,91.40
2018-06-27T04:57:15.502Z,91.20
2018-06-27T04:59:17.590Z,91.50
2018-06-27T05:01:19.673Z,91.70
2018-06-27T05:03:21.753Z,91.40
2018-06-27T05:05:23.989Z,91.80
2018-06-27T05:07:26.098Z,91.40
2018-06-27T05:09:28.139Z,91.40
2018-06-27T05:11:30.452Z,91.20
2018-06-27T05:13:32.569Z,91.20
2018-06-27T05:15:34.637Z,91.50
2018-06-27T05:17:36.690Z,91.20
2018-06-27T05:19:40.396Z,91.50
2018-06-27T05:21:42.642Z,91.10
2018-06-27T05:23:44.693Z,91.60
2018-06-27T05:25:46.765Z,91.20
2018-06-27T05:27:48.850Z,91.60
2018-06-27T05:29:51.219Z,91.20
2018-06-27T05:31:53.318Z,90.70
2018-06-27T05:33:55.422Z,90.80
2018-06-27T05:35:57.517Z,90.70
2018-06-27T05:37:59.577Z,90.40
2018-06-27T05:40:01.756Z,90.60
2018-06-27T05:42:03.854Z,90.40
2018-06-27T05:44:05.938Z,90.80
2018-06-27T05:46:08.028Z,91.10
2018-06-27T05:48:10.101Z,91.50
2018-06-27T05:50:12.189Z,91.30
2018-06-27T05:52:14.276Z,90.50
2018-06-27T05:54:16.390Z,90.50
2018-06-27T05:56:18.467Z,90.50
2018-06-27T05:58:20.651Z,90.30
2018-06-27T06:00:22.654Z,90.10
2018-06-27T06:02:24.894Z,89.90
2018-06-27T06:04:27.003Z,89.50
2018-06-27T06:06:29.054Z,89.70
2018-06-27T06:08:31.129Z,89.50
2018-06-27T06:10:33.205Z,90.10
2018-06-27T06:12:35.297Z,89.60
2018-06-27T06:14:37.370Z,89.10
2018-06-27T06:16:39.442Z,89.00
2018-06-27T06:18:41.621Z,88.20
2018-06-27T06:20:43.746Z,87.90
2018-06-27T06:22:45.846Z,88.40
2018-06-27T06:24:49.234Z,88.40
2018-06-27T06:26:51.350Z,88.60
2018-06-27T06:28:53.458Z,88.70
2018-06-27T06:30:55.564Z,89.20
2018-06-27T06:32:58.066Z,88.30
2018-06-27T06:35:00.185Z,88.50
2018-06-27T06:37:02.285Z,88.30
2018-06-27T06:39:06.530Z,87.50
2018-06-27T06:41:08.609Z,87.00
2018-06-27T06:43:10.838Z,86.10
2018-06-27T06:45:12.955Z,85.40
2018-06-27T06:47:15.072Z,84.60
2018-06-27T06:49:17.171Z,84.30
2018-06-27T06:51:19.472Z,83.00
2018-06-27T06:53:21.652Z,83.40
2018-06-27T06:55:23.818Z,83.50
2018-06-27T06:57:26.169Z,83.50
2018-06-27T06:59:28.304Z,84.30
2018-06-27T07:01:30.400Z,84.50
2018-06-27T07:03:32.521Z,83.70
2018-06-27T07:05:34.611Z,83.60
2018-06-27T07:07:36.808Z,83.60
2018-06-27T07:09:38.906Z,81.60
2018-06-27T07:11:41.262Z,80.10
2018-06-27T07:13:43.424Z,78.70
2018-06-27T07:15:45.559Z,77.50
2018-06-27T07:17:47.712Z,78.00
2018-06-27T07:19:49.887Z,78.10
2018-06-27T07:21:52.732Z,77.10
2018-06-27T07:23:54.907Z,77.50
2018-06-27T07:25:57.110Z,75.90
2018-06-27T07:27:59.294Z,74.60
2018-06-27T07:30:01.524Z,74.80
2018-06-27T07:32:03.624Z,73.20
2018-06-27T07:34:05.791Z,75.10
2018-06-27T07:36:07.935Z,75.20
2018-06-27T07:38:10.086Z,75.70
2018-06-27T07:40:12.219Z,73.30
2018-06-27T07:42:14.364Z,74.80
2018-06-27T07:44:16.557Z,75.20
2018-06-27T07:46:18.720Z,74.40
2018-06-27T07:48:20.855Z,72.30
2018-06-27T07:50:22.994Z,72.90
2018-06-27T07:52:25.130Z,72.70
2018-06-27T07:54:27.307Z,70.90
2018-06-27T07:56:29.431Z,71.00
2018-06-27T07:58:32.490Z,71.50
2018-06-27T08:00:34.632Z,71.60
2018-06-27T08:02:36.779Z,69.60
2018-06-27T08:04:38.920Z,69.50
2018-06-27T08:06:45.190Z,68.80
2018-06-27T08:08:47.327Z,66.10
2018-06-27T08:10:49.554Z,63.20
2018-06-27T08:12:51.935Z,63.40
2018-06-27T08:14:54.186Z,62.90
2018-06-27T08:16:56.384Z,63.30
2018-06-27T08:18:58.524Z,62.60
2018-06-27T08:21:00.656Z,63.30
2018-06-27T08:23:02.816Z,63.00
2018-06-27T08:25:05.260Z,63.20
2018-06-27T08:27:07.488Z,63.80
2018-06-27T08:29:09.671Z,63.30
2018-06-27T08:31:11.825Z,63.80
2018-06-27T08:33:13.990Z,64.60
2018-06-27T08:35:16.132Z,63.70
2018-06-27T08:37:18.327Z,64.90
2018-06-27T08:39:20.528Z,66.10
2018-06-27T08:41:22.670Z,66.30
2018-06-27T08:43:25.174Z,66.70
2018-06-27T08:45:27.338Z,66.30
2018-06-27T08:47:29.489Z,66.10
2018-06-27T08:49:31.726Z,66.50
2018-06-27T08:51:33.852Z,66.50
2018-06-27T08:53:35.980Z,66.30
2018-06-27T08:55:38.147Z,65.30
2018-06-27T08:57:40.314Z,63.90
2018-06-27T08:59:42.598Z,65.20
2018-06-27T09:01:44.754Z,65.20
2018-06-27T09:03:46.916Z,64.80
2018-06-27T09:05:49.374Z,64.60
2018-06-27T09:07:51.619Z,64.10
2018-06-27T09:09:53.791Z,65.30
2018-06-27T09:11:56.125Z,61.40
2018-06-27T09:13:58.293Z,60.60
2018-06-27T09:16:00.450Z,61.10
2018-06-27T09:18:02.706Z,61.00
2018-06-27T09:20:04.932Z,60.00
2018-06-27T09:22:07.059Z,59.20
2018-06-27T09:24:09.221Z,60.10
2018-06-27T09:26:11.418Z,60.60
2018-06-27T09:28:13.586Z,60.40
2018-06-27T09:30:18.186Z,58.60
2018-06-27T09:32:20.626Z,56.40
2018-06-27T09:34:23.030Z,53.80
2018-06-27T09:36:25.751Z,54.30
2018-06-27T09:38:28.187Z,55.40
2018-06-27T09:40:31.665Z,54.40
2018-06-27T09:42:33.846Z,55.80
2018-06-27T09:44:36.015Z,56.20
2018-06-27T09:46:38.193Z,54.80
2018-06-27T09:48:40.329Z,55.30
2018-06-27T09:50:42.453Z,55.30
2018-06-27T09:52:44.636Z,55.40
2018-06-27T09:54:46.834Z,56.30
2018-06-27T09:56:49.028Z,55.50
2018-06-27T09:58:51.366Z,54.50
2018-06-27T10:00:53.989Z,55.10
2018-06-27T10:02:56.143Z,55.20
2018-06-27T10:04:58.327Z,56.20
2018-06-27T10:07:00.592Z,54.70
2018-06-27T10:09:04.758Z,54.00
2018-06-27T10:11:06.914Z,55.40
2018-06-27T10:13:09.112Z,55.80
2018-06-27T10:15:11.247Z,54.80
2018-06-27T10:17:13.397Z,53.70
2018-06-27T10:19:15.513Z,54.70
2018-06-27T10:21:17.674Z,55.00
2018-06-27T10:23:19.849Z,54.30
2018-06-27T10:25:22.004Z,54.30
2018-06-27T10:27:24.141Z,54.50
2018-06-27T10:29:26.282Z,55.10
2018-06-27T10:31:28.428Z,55.50
2018-06-27T10:33:30.566Z,54.00
2018-06-27T10:35:32.765Z,54.60
2018-06-27T10:37:34.952Z,54.80
2018-06-27T10:39:37.092Z,55.30
2018-06-27T10:41:39.574Z,56.30
2018-06-27T10:43:41.800Z,55.60
2018-06-27T10:45:43.935Z,55.40
2018-06-27T10:47:46.071Z,55.90
2018-06-27T10:49:48.246Z,54.90
2018-06-27T10:51:50.402Z,55.40
2018-06-27T10:53:52.532Z,55.10
2018-06-27T10:55:54.944Z,55.20
2018-06-27T10:57:57.137Z,55.00
2018-06-27T11:02:01.430Z,53.80
2018-06-27T11:04:03.619Z,53.60
2018-06-27T11:06:05.880Z,54.00
2018-06-27T11:08:08.014Z,53.20
2018-06-27T11:10:10.150Z,53.20
2018-06-27T11:12:12.334Z,53.80
2018-06-27T11:14:14.525Z,54.00
2018-06-27T11:16:16.658Z,53.90
2018-06-27T11:18:18.847Z,51.10
2018-06-27T11:20:21.119Z,49.90
2018-06-27T11:22:23.321Z,48.80
2018-06-27T11:24:25.432Z,48.50
2018-06-27T11:26:27.596Z,49.00
2018-06-27T11:28:29.786Z,49.10
2018-06-27T11:30:31.931Z,48.30
2018-06-27T11:32:34.081Z,48.00
2018-06-27T11:34:36.231Z,47.70
2018-06-27T11:36:38.414Z,46.90
2018-06-27T11:38:40.642Z,46.00
2018-06-27T11:40:42.879Z,47.40
2018-06-27T11:42:45.023Z,47.60
2018-06-27T11:44:47.151Z,47.30
2018-06-27T11:46:49.308Z,47.00
2018-06-27T11:48:51.454Z,45.60
2018-06-27T11:50:53.630Z,45.90
2018-06-27T11:52:55.749Z,45.50
2018-06-27T11:55:03.617Z,44.30
2018-06-27T11:57:05.816Z,43.80
2018-06-27T11:59:07.944Z,44.70
2018-06-27T12:01:10.162Z,45.20
2018-06-27T12:03:12.301Z,46.30
2018-06-27T12:05:14.457Z,46.20
2018-06-27T12:07:16.654Z,45.50
2018-06-27T12:09:18.790Z,44.10
2018-06-27T12:11:20.923Z,43.60
2018-06-27T12:15:25.279Z,45.70
2018-06-27T12:17:27.472Z,45.50
2018-06-27T12:19:29.675Z,44.70
2018-06-27T12:21:31.846Z,45.30
2018-06-27T12:23:34.016Z,44.30
2018-06-27T12:25:36.270Z,45.10
2018-06-27T12:27:38.472Z,46.20
2018-06-27T12:29:40.706Z,47.80
2018-06-27T12:31:42.824Z,47.60
2018-06-27T12:33:45.071Z,47.10
2018-06-27T12:35:47.194Z,47.50
2018-06-27T12:37:49.709Z,47.20
2018-06-27T12:39:52.106Z,46.30
2018-06-27T12:41:54.246Z,45.60
2018-06-27T12:43:56.418Z,43.90
2018-06-27T12:46:00.376Z,44.70
2018-06-27T12:48:02.591Z,45.80
2018-06-27T12:50:04.959Z,44.60
2018-06-27T12:52:07.218Z,42.70
2018-06-27T12:54:09.772Z,41.10
2018-06-27T12:56:11.935Z,41.70
2018-06-27T12:58:14.104Z,40.40
2018-06-27T13:00:16.240Z,40.20
2018-06-27T13:02:18.440Z,39.40
2018-06-27T13:04:20.670Z,38.20
2018-06-27T13:06:22.849Z,38.50
2018-06-27T13:08:25.014Z,38.10
2018-06-27T13:10:27.246Z,38.50
2018-06-27T13:12:29.416Z,37.50
2018-06-27T13:14:31.692Z,37.60
2018-06-27T13:16:34.219Z,37.00
2018-06-27T13:18:36.494Z,36.90
2018-06-27T13:20:45.487Z,37.10
2018-06-27T13:22:48.733Z,37.90
2018-06-27T13:24:51.607Z,37.40
2018-06-27T13:26:53.746Z,36.90
2018-06-27T13:28:56.299Z,35.70
2018-06-27T13:30:58.483Z,35.70
2018-06-27T13:33:00.757Z,36.70
2018-06-27T13:35:03.287Z,35.50
2018-06-27T13:37:05.505Z,35.60
2018-06-27T13:39:09.545Z,35.70
2018-06-27T13:41:12.030Z,35.50
2018-06-27T13:43:14.295Z,35.00
2018-06-27T13:45:16.533Z,35.20
2018-06-27T13:47:21.166Z,36.00
2018-06-27T13:49:23.464Z,36.70
2018-06-27T13:51:25.658Z,36.00
2018-06-27T13:53:27.818Z,35.10
2018-06-27T13:55:29.951Z,34.20
2018-06-27T13:57:32.092Z,34.80
2018-06-27T13:59:34.344Z,33.60
2018-06-27T14:01:36.458Z,33.10
2018-06-27T14:03:38.579Z,33.40
2018-06-27T14:05:40.713Z,32.80
2018-06-27T14:07:42.822Z,33.20
2018-06-27T14:09:44.895Z,34.70
2018-06-27T14:11:46.982Z,33.80
2018-06-27T14:13:49.112Z,34.10
2018-06-27T14:15:51.410Z,34.10
2018-06-27T14:17:53.509Z,35.50
2018-06-27T14:19:55.746Z,37.00
2018-06-27T14:21:57.864Z,36.40
2018-06-27T14:24:00.014Z,37.20
2018-06-27T14:26:02.073Z,37.20
2018-06-27T14:28:04.178Z,36.60
2018-06-27T14:30:06.283Z,36.70
2018-06-27T14:32:08.575Z,38.70
2018-06-27T14:34:10.658Z,39.70
2018-06-27T14:36:12.765Z,41.20
2018-06-27T14:38:15.164Z,41.50
2018-06-27T14:40:17.255Z,41.70
2018-06-27T14:42:19.335Z,41.80
2018-06-27T14:44:21.438Z,43.90
2018-06-27T14:48:25.647Z,47.30
2018-06-27T14:50:27.750Z,49.60
2018-06-27T14:52:29.866Z,50.90
2018-06-27T14:54:31.964Z,51.00
2018-06-27T14:56:34.231Z,50.70
2018-06-27T14:58:36.361Z,52.10
2018-06-27T15:00:38.434Z,53.20
2018-06-27T15:02:41.137Z,52.80
2018-06-27T15:04:43.356Z,52.40
2018-06-27T15:06:45.406Z,52.50
2018-06-27T15:08:47.522Z,54.60
2018-06-27T15:10:49.660Z,54.90
2018-06-27T15:12:51.724Z,54.90
2018-06-27T15:14:59.011Z,55.00
2018-06-27T15:17:01.128Z,55.10
2018-06-27T15:19:03.282Z,55.10
2018-06-27T15:21:05.482Z,54.40
2018-06-27T15:23:07.587Z,54.20
2018-06-27T15:25:09.715Z,54.90
2018-06-27T15:27:11.835Z,55.70
2018-06-27T15:29:14.982Z,56.00
2018-06-27T15:31:17.113Z,57.00
2018-06-27T15:33:19.218Z,57.10
2018-06-27T15:35:21.375Z,56.70
2018-06-27T15:37:23.430Z,57.00
2018-06-27T15:39:25.803Z,57.90
2018-06-27T15:41:27.926Z,59.30
2018-06-27T15:43:30.012Z,60.80
2018-06-27T15:45:32.101Z,60.70
2018-06-27T15:47:34.257Z,61.30
2018-06-27T15:49:36.358Z,61.20
2018-06-27T15:51:38.766Z,61.80
2018-06-27T15:53:40.886Z,61.80
2018-06-27T15:55:42.957Z,61.90
2018-06-27T15:57:45.103Z,61.00
2018-06-27T15:59:51.041Z,60.20
2018-06-27T16:01:53.214Z,60.90
2018-06-27T16:04:10.594Z,61.00
2018-06-27T16:06:12.854Z,61.30
2018-06-27T16:08:15.054Z,61.30
2018-06-27T16:10:17.880Z,61.40
2018-06-27T16:12:20.088Z,61.90
2018-06-27T16:14:22.244Z,62.30
2018-06-27T16:16:24.479Z,62.60
2018-06-27T16:18:26.638Z,62.10
2018-06-27T16:20:28.820Z,62.40
2018-06-27T16:22:31.061Z,62.30
2018-06-27T16:24:33.257Z,63.00
2018-06-27T16:26:35.422Z,63.20
2018-06-27T16:28:37.661Z,63.20
2018-06-27T16:30:39.862Z,63.80
2018-06-27T16:32:42.082Z,63.60
2018-06-27T16:34:44.554Z,63.60
2018-06-27T16:36:46.724Z,64.00
2018-06-27T16:38:48.955Z,64.10
2018-06-27T16:40:51.090Z,64.30
2018-06-27T16:42:53.343Z,64.00
2018-06-27T16:44:55.548Z,64.40
2018-06-27T16:46:57.709Z,64.70
2018-06-27T16:48:59.922Z,64.60
2018-06-27T16:51:03.321Z,64.90
2018-06-27T16:53:05.297Z,65.20
2018-06-27T16:55:07.509Z,65.50
2018-06-27T16:57:09.919Z,65.80
2018-06-27T16:59:12.111Z,65.80
2018-06-27T17:01:14.329Z,66.60
2018-06-27T17:03:16.442Z,66.60
2018-06-27T17:05:18.618Z,66.30
2018-06-27T17:07:20.809Z,66.40
2018-06-27T17:09:23.129Z,66.60
2018-06-27T17:11:25.343Z,66.80
2018-06-27T17:13:27.469Z,67.10
2018-06-27T17:15:29.634Z,66.50
2018-06-27T17:17:31.794Z,66.50
2018-06-27T17:19:34.002Z,66.10
2018-06-27T17:21:36.172Z,65.90
2018-06-27T17:23:38.342Z,66.10
2018-06-27T17:25:40.567Z,65.90
2018-06-27T17:27:42.714Z,65.80
2018-06-27T17:29:44.844Z,66.00
2018-06-27T17:31:47.031Z,66.40
2018-06-27T17:33:49.211Z,66.20
2018-06-27T17:35:51.370Z,66.40
2018-06-27T17:37:53.603Z,66.70
2018-06-27T17:39:56.146Z,67.00
2018-06-27T17:41:58.534Z,67.40
2018-06-27T17:44:00.779Z,67.70
2018-06-27T17:46:03.435Z,67.80
2018-06-27T17:48:05.625Z,68.30
2018-06-27T17:50:07.937Z,68.40
2018-06-27T17:52:10.140Z,68.20
2018-06-27T17:54:12.282Z,68.10
2018-06-27T17:56:14.410Z,68.40
2018-06-27T17:58:16.567Z,68.70
2018-06-27T18:00:18.805Z,68.50
2018-06-27T18:02:21.023Z,68.40
2018-06-27T18:04:23.195Z,68.80
2018-06-27T18:06:25.333Z,69.10
2018-06-27T18:08:29.121Z,69.00
2018-06-27T18:10:31.376Z,69.20
2018-06-27T18:12:33.569Z,69.40
2018-06-27T18:14:35.799Z,69.50
2018-06-27T18:16:38.001Z,69.80
2018-06-27T18:18:41.339Z,70.00
2018-06-27T18:20:43.555Z,70.10
2018-06-27T18:22:45.747Z,70.20
2018-06-27T18:24:47.910Z,70.30
2018-06-27T18:26:50.173Z,70.40
2018-06-27T18:28:52.636Z,70.50
2018-06-27T18:30:54.828Z,70.80
2018-06-27T18:32:57.333Z,70.80
2018-06-27T18:34:59.581Z,71.00
2018-06-27T18:37:01.751Z,71.20
2018-06-27T18:39:06.853Z,71.10
2018-06-27T18:41:09.006Z,71.30
2018-06-27T18:43:11.178Z,71.30
2018-06-27T18:45:13.349Z,71.60
2018-06-27T18:47:15.537Z,71.60
2018-06-27T18:49:17.719Z,72.00
2018-06-27T18:51:19.873Z,71.90
2018-06-27T18:53:22.070Z,72.20
2018-06-27T18:55:24.371Z,72.40
2018-06-27T18:57:26.603Z,72.50
2018-06-27T18:59:28.745Z,72.40
2018-06-27T19:01:30.988Z,72.70
2018-06-27T19:03:33.330Z,72.70
2018-06-27T19:05:35.585Z,72.70
2018-06-27T19:07:37.821Z,72.90
2018-06-27T19:09:40.011Z,72.90
2018-06-27T19:11:42.474Z,73.10
2018-06-27T19:13:44.672Z,73.20
2018-06-27T19:15:46.823Z,73.40
2018-06-27T19:17:49.177Z,73.60
2018-06-27T19:19:51.334Z,73.60
2018-06-27T19:21:53.524Z,73.80
2018-06-27T19:23:55.741Z,74.00
2018-06-27T19:25:57.946Z,73.90
2018-06-27T19:28:00.183Z,74.10
2018-06-27T19:30:02.369Z,74.00
2018-06-27T19:32:04.554Z,74.10
2018-06-27T19:34:06.712Z,74.70
2018-06-27T19:36:08.915Z,74.80
2018-06-27T19:38:11.130Z,75.00
2018-06-27T19:40:13.317Z,74.90
2018-06-27T19:42:15.569Z,75.40
2018-06-27T19:44:17.740Z,75.60
2018-06-27T19:46:19.964Z,75.60
2018-06-27T19:48:22.110Z,75.70
2018-06-27T19:50:24.250Z,75.80
2018-06-27T19:52:26.479Z,76.30
2018-06-27T19:54:28.590Z,76.70
2018-06-27T19:56:31.517Z,76.80
2018-06-27T19:58:33.661Z,76.80
2018-06-27T20:00:35.859Z,76.60
2018-06-27T20:02:38.899Z,76.40
2018-06-27T20:04:41.046Z,76.60
2018-06-27T20:06:43.255Z,76.90
2018-06-27T20:08:45.440Z,77.20
2018-06-27T20:10:47.655Z,77.20
2018-06-27T20:12:52.408Z,77.30
2018-06-27T20:14:54.619Z,77.70
2018-06-27T20:16:57.854Z,78.00
2018-06-27T20:19:02.966Z,77.80
2018-06-27T20:21:05.131Z,77.90
2018-06-27T20:23:07.354Z,77.80
2018-06-27T20:25:09.538Z,78.00
2018-06-27T20:27:11.737Z,78.40
2018-06-27T20:29:13.903Z,78.40
2018-06-27T20:31:16.069Z,78.50
2018-06-27T20:33:18.277Z,78.60
2018-06-27T20:35:20.495Z,78.70
2018-06-27T20:37:22.652Z,78.60
2018-06-27T20:39:24.791Z,79.00
2018-06-27T20:41:26.951Z,79.20
2018-06-27T20:43:29.122Z,79.20
2018-06-27T20:45:31.394Z,79.30
2018-06-27T20:47:35.007Z,79.50
2018-06-27T20:49:40.336Z,79.60
2018-06-27T20:51:42.527Z,79.60
2018-06-27T20:53:45.032Z,79.80
2018-06-27T20:55:48.176Z,80.10
2018-06-27T20:57:50.383Z,80.30
2018-06-27T20:59:52.570Z,80.70
2018-06-27T21:01:54.767Z,80.90
2018-06-27T21:03:56.925Z,80.70
2018-06-27T21:05:59.168Z,80.50
2018-06-27T21:08:01.766Z,81.00
2018-06-27T21:10:04.263Z,81.40
2018-06-27T21:12:06.484Z,81.30
2018-06-27T21:14:08.615Z,81.20
2018-06-27T21:16:13.148Z,81.60
2018-06-27T21:18:15.291Z,81.70
2018-06-27T21:20:17.597Z,81.70
2018-06-27T21:22:19.799Z,81.70
2018-06-27T21:24:22.047Z,82.00
2018-06-27T21:26:24.210Z,82.00
2018-06-27T21:28:26.621Z,82.00
2018-06-27T21:30:28.830Z,82.00
2018-06-27T21:32:30.993Z,82.10
2018-06-27T21:34:33.182Z,82.30
2018-06-27T21:36:35.366Z,82.40
2018-06-27T21:38:37.582Z,82.60
2018-06-27T21:40:39.790Z,83.00
2018-06-27T21:42:41.955Z,83.20
2018-06-27T21:44:44.135Z,82.90
2018-06-27T21:46:46.342Z,83.10
2018-06-27T21:48:48.535Z,83.30
2018-06-27T21:50:50.791Z,83.20
2018-06-27T21:52:52.958Z,83.10
2018-06-27T21:54:55.132Z,83.10
2018-06-27T21:56:57.273Z,83.40
2018-06-27T21:58:59.446Z,83.30
2018-06-27T22:01:01.539Z,83.50
2018-06-27T22:03:08.554Z,83.60
2018-06-27T22:05:10.625Z,83.80
2018-06-27T22:07:12.818Z,83.70
2018-06-27T22:09:15.047Z,84.00
2018-06-27T22:11:17.017Z,84.00
2018-06-27T22:13:19.105Z,84.40
2018-06-27T22:15:21.190Z,84.50
2018-06-27T22:17:23.278Z,84.30
2018-06-27T22:19:25.363Z,84.60
2018-06-27T22:21:27.445Z,84.70
2018-06-27T22:23:29.522Z,84.40
2018-06-27T22:25:31.606Z,84.10
2018-06-27T22:27:33.710Z,84.20
2018-06-27T22:29:35.814Z,84.30
2018-06-27T22:31:38.454Z,84.40
2018-06-27T22:33:40.561Z,84.80
2018-06-27T22:35:42.747Z,84.60
2018-06-27T22:37:44.874Z,84.80
2018-06-27T22:39:46.962Z,85.00
2018-06-27T22:41:49.113Z,85.00
2018-06-27T22:43:51.179Z,85.10
2018-06-27T22:45:53.254Z,84.90
2018-06-27T22:47:55.350Z,84.70
2018-06-27T22:49:57.418Z,84.80
2018-06-27T22:51:59.523Z,84.90
2018-06-27T22:54:01.630Z,85.00
2018-06-27T22:56:04.226Z,84.90
2018-06-27T22:58:06.310Z,85.00
2018-06-27T23:00:08.438Z,85.10
2018-06-27T23:04:12.652Z,85.10
2018-06-27T23:06:14.706Z,85.30
2018-06-27T23:08:16.783Z,85.00
2018-06-27T23:10:18.866Z,85.10
2018-06-27T23:12:20.961Z,85.40
2018-06-27T23:14:23.068Z,85.80
2018-06-27T23:16:25.177Z,85.80
2018-06-27T23:18:27.249Z,85.90
2018-06-27T23:20:29.334Z,85.70
2018-06-27T23:22:43.517Z,85.90
2018-06-27T23:24:45.607Z,85.50
2018-06-27T23:26:47.721Z,85.30
2018-06-27T23:28:49.829Z,85.40
2018-06-27T23:30:51.923Z,85.20
2018-06-27T23:32:53.999Z,85.00
2018-06-27T23:34:56.170Z,85.20
2018-06-27T23:39:00.382Z,85.20
2018-06-27T23:41:02.516Z,85.00
2018-06-27T23:43:04.634Z,84.90
2018-06-27T23:45:06.822Z,84.90
2018-06-27T23:47:08.910Z,84.70
2018-06-27T23:49:10.986Z,84.70
2018-06-27T23:51:13.054Z,85.00
2018-06-27T23:53:15.469Z,84.90
2018-06-27T23:55:17.550Z,84.90
2018-06-27T23:57:19.638Z,84.80
2018-06-27T23:59:21.718Z,84.90
